createdAt,value
2018-02-01T00:04:32.823Z,99438
2018-02-01T00:09:36.649Z,99445
2018-02-01T00:14:40.475Z,99449
2018-02-01T00:19:44.725Z,99452
2018-02-01T00:24:47.792Z,99450
2018-02-01T00:29:51.629Z,99449
2018-02-01T00:40:07.382Z,99456
2018-02-01T00:45:10.445Z,99450
2018-02-01T00:50:15.003Z,99456
2018-02-01T00:55:19.417Z,99454
2018-02-01T01:00:22.478Z,99451
2018-02-01T01:05:26.302Z,99451
2018-02-01T01:10:30.870Z,99445
2018-02-01T01:15:33.934Z,99442
2018-02-01T01:20:38.346Z,99455
2018-02-01T01:25:41.402Z,99443
2018-02-01T01:30:45.226Z,99481
2018-02-01T01:35:48.669Z,99472
2018-02-01T01:40:51.733Z,99471
2018-02-01T01:46:10.206Z,99478
2018-02-01T01:51:13.259Z,99489
2018-02-01T01:56:17.821Z,99496
2018-02-01T02:01:21.647Z,99481
2018-02-01T02:06:24.713Z,99484
2018-02-01T02:11:27.774Z,99483
2018-02-01T02:16:31.974Z,99490
2018-02-01T02:21:35.026Z,99493
2018-02-01T02:26:38.858Z,99486
2018-02-01T02:31:42.318Z,99474
2018-02-01T02:36:45.781Z,99462
2018-02-01T02:41:49.606Z,99455
2018-02-01T02:46:53.071Z,99452
2018-02-01T02:51:56.898Z,99447
2018-02-01T02:57:00.369Z,99442
2018-02-01T03:02:04.898Z,99438
2018-02-01T03:07:08.341Z,99442
2018-02-01T03:12:11.398Z,99445
2018-02-01T03:17:15.843Z,99438
2018-02-01T03:22:20.415Z,99435
2018-02-01T03:27:24.030Z,99431
2018-02-01T03:32:27.902Z,99428
2018-02-01T03:37:31.461Z,99421
2018-02-01T03:42:34.994Z,99423
2018-02-01T03:47:39.012Z,99420
2018-02-01T03:52:47.513Z,99422
2018-02-01T03:57:51.059Z,99428
2018-02-01T04:02:55.355Z,99428
2018-02-01T04:07:58.923Z,99421
2018-02-01T04:13:06.318Z,99429
2018-02-01T04:18:10.956Z,99428
2018-02-01T04:23:14.856Z,99417
2018-02-01T04:28:17.998Z,99417
2018-02-01T04:33:21.097Z,99419
2018-02-01T04:38:24.553Z,99423
2018-02-01T04:43:28.973Z,99423
2018-02-01T04:48:33.402Z,99424
2018-02-01T04:53:37.603Z,99423
2018-02-01T04:58:42.226Z,99425
2018-02-01T05:03:45.294Z,99424
2018-02-01T05:08:49.704Z,99421
2018-02-01T05:13:52.770Z,99411
2018-02-01T05:18:57.347Z,99408
2018-02-01T05:24:01.178Z,99405
2018-02-01T05:29:04.641Z,99403
2018-02-01T05:34:07.703Z,99402
2018-02-01T05:39:11.155Z,99395
2018-02-01T05:44:14.217Z,99397
2018-02-01T05:49:17.710Z,99385
2018-02-01T05:54:21.559Z,99390
2018-02-01T05:59:25.014Z,99387
2018-02-01T06:04:28.099Z,99385
2018-02-01T06:09:31.935Z,99390
2018-02-01T06:14:35.438Z,99386
2018-02-01T06:19:38.931Z,99396
2018-02-01T06:24:43.515Z,99399
2018-02-01T06:29:47.003Z,99401
2018-02-01T06:34:50.848Z,99397
2018-02-01T06:39:54.705Z,99396
2018-02-01T06:44:58.551Z,99402
2018-02-01T06:50:02.434Z,99400
2018-02-01T06:55:06.849Z,99393
2018-02-01T07:00:11.269Z,99403
2018-02-01T07:05:15.709Z,99410
2018-02-01T07:10:18.774Z,99414
2018-02-01T07:15:21.842Z,99426
2018-02-01T07:20:24.916Z,99419
2018-02-01T07:25:30.077Z,99430
2018-02-01T07:30:34.511Z,99437
2018-02-01T07:35:38.935Z,99453
2018-02-01T07:40:42.426Z,99445
2018-02-01T07:45:46.235Z,99455
2018-02-01T07:50:50.927Z,99453
2018-02-01T07:55:55.151Z,99447
2018-02-01T08:00:59.741Z,99452
2018-02-01T08:06:03.965Z,99456
2018-02-01T08:11:07.039Z,99459
2018-02-01T08:16:12.222Z,99458
2018-02-01T08:21:16.684Z,99451
2018-02-01T08:26:21.116Z,99453
2018-02-01T08:31:26.043Z,99445
2018-02-01T08:36:30.782Z,99448
2018-02-01T08:41:33.848Z,99439
2018-02-01T08:46:36.943Z,99446
2018-02-01T08:51:41.370Z,99449
2018-02-01T08:56:45.207Z,99443
2018-02-01T09:01:49.638Z,99440
2018-02-01T09:06:54.072Z,99438
2018-02-01T09:11:57.135Z,99446
2018-02-01T09:17:01.568Z,99445
2018-02-01T09:22:06.003Z,99449
2018-02-01T09:27:10.438Z,99461
2018-02-01T09:32:14.276Z,99466
2018-02-01T09:37:18.044Z,99462
2018-02-01T09:42:22.478Z,99458
2018-02-01T09:47:26.975Z,99453
2018-02-01T09:52:31.418Z,99457
2018-02-01T09:57:35.859Z,99465
2018-02-01T10:02:40.273Z,99459
2018-02-01T10:07:44.706Z,99457
2018-02-01T10:12:47.794Z,99451
2018-02-01T10:17:52.367Z,99457
2018-02-01T10:22:56.799Z,99457
2018-02-01T10:28:02.162Z,99453
2018-02-01T10:33:05.256Z,99451
2018-02-01T10:38:08.718Z,99461
2018-02-01T10:43:13.190Z,99465
2018-02-01T10:48:17.357Z,99465
2018-02-01T10:53:22.759Z,99461
2018-02-01T10:58:27.179Z,99460
2018-02-01T11:03:31.403Z,99462
2018-02-01T11:08:35.858Z,99462
2018-02-01T11:13:40.287Z,99447
2018-02-01T11:18:43.766Z,99442
2018-02-01T11:23:48.191Z,99425
2018-02-01T11:28:51.668Z,99426
2018-02-01T11:33:56.119Z,99421
2018-02-01T11:38:59.203Z,99419
2018-02-01T11:44:03.638Z,99411
2018-02-01T11:49:08.074Z,99405
2018-02-01T11:54:11.535Z,99398
2018-02-01T11:59:15.740Z,99397
2018-02-01T12:04:20.167Z,99396
2018-02-01T12:09:24.591Z,99386
2018-02-01T12:14:27.664Z,99385
2018-02-01T12:19:31.531Z,99381
2018-02-01T12:24:36.107Z,99375
2018-02-01T12:29:40.550Z,99372
2018-02-01T12:34:44.986Z,99370
2018-02-01T12:39:49.416Z,99375
2018-02-01T12:44:52.891Z,99371
2018-02-01T12:49:57.319Z,99366
2018-02-01T12:55:01.894Z,99367
2018-02-01T13:00:06.100Z,99360
2018-02-01T13:05:10.531Z,99364
2018-02-01T13:10:14.387Z,99366
2018-02-01T13:15:17.868Z,99351
2018-02-01T13:20:22.308Z,99359
2018-02-01T13:25:26.147Z,99350
2018-02-01T13:30:30.025Z,99348
2018-02-01T13:35:33.082Z,99345
2018-02-01T13:40:36.467Z,99345
2018-02-01T13:45:40.889Z,99349
2018-02-01T13:50:45.332Z,99351
2018-02-01T13:55:48.416Z,99350
2018-02-01T14:00:52.915Z,99350
2018-02-01T14:05:57.343Z,99357
2018-02-01T14:11:01.918Z,99359
2018-02-01T14:16:06.359Z,99363
2018-02-01T14:21:09.840Z,99357
2018-02-01T14:26:14.270Z,99357
2018-02-01T14:31:18.559Z,99361
2018-02-01T14:36:22.995Z,99364
2018-02-01T14:41:27.494Z,99361
2018-02-01T14:46:30.579Z,99376
2018-02-01T14:51:34.404Z,99401
2018-02-01T14:56:38.886Z,99404
2018-02-01T15:01:43.312Z,99407
2018-02-01T15:06:46.395Z,99404
2018-02-01T15:11:50.607Z,99412
2018-02-01T15:16:55.063Z,99419
2018-02-01T15:21:59.485Z,99418
2018-02-01T15:27:03.907Z,99410
2018-02-01T15:32:08.334Z,99413
2018-02-01T15:37:12.168Z,99422
2018-02-01T15:42:16.587Z,99431
2018-02-01T15:47:19.671Z,99427
2018-02-01T15:52:24.250Z,99435
2018-02-01T15:57:27.307Z,99447
2018-02-01T16:02:30.766Z,99448
2018-02-01T16:07:35.198Z,99456
2018-02-01T16:12:39.598Z,99450
2018-02-01T16:17:43.803Z,99469
2018-02-01T16:22:47.777Z,99480
2018-02-01T16:27:51.979Z,99485
2018-02-01T16:32:55.055Z,99489
2018-02-01T16:37:59.465Z,99498
2018-02-01T16:43:02.549Z,99491
2018-02-01T16:48:06.970Z,99497
2018-02-01T16:53:11.385Z,99507
2018-02-01T16:58:14.858Z,99514
2018-02-01T17:03:19.294Z,99521
2018-02-01T17:08:23.123Z,99524
2018-02-01T17:13:26.253Z,99531
2018-02-01T17:18:30.666Z,99536
2018-02-01T17:23:34.374Z,99544
2018-02-01T17:28:38.830Z,99544
2018-02-01T17:33:42.335Z,99557
2018-02-01T17:38:46.932Z,99556
2018-02-01T17:43:50.779Z,99556
2018-02-01T17:48:55.446Z,99562
2018-02-01T17:53:58.928Z,99560
2018-02-01T17:59:04.108Z,99568
2018-02-01T18:04:08.305Z,99572
2018-02-01T18:09:13.533Z,99562
2018-02-01T18:14:18.103Z,99571
2018-02-01T18:19:22.525Z,99569
2018-02-01T18:24:26.358Z,99574
2018-02-01T18:29:29.647Z,99586
2018-02-01T18:34:34.152Z,99583
2018-02-01T18:39:38.579Z,99585
2018-02-01T18:44:43.001Z,99589
2018-02-01T18:49:47.585Z,99604
2018-02-01T18:54:50.987Z,99609
2018-02-01T18:59:55.175Z,99612
2018-02-01T19:04:59.587Z,99617
2018-02-01T19:10:04.167Z,99618
2018-02-01T19:15:07.847Z,99623
2018-02-01T19:20:10.908Z,99626
2018-02-01T19:25:15.463Z,99632
2018-02-01T19:30:19.882Z,99631
2018-02-01T19:35:24.298Z,99630
2018-02-01T19:40:28.722Z,99633
2018-02-01T19:45:32.932Z,99631
2018-02-01T19:50:37.712Z,99631
2018-02-01T19:55:42.263Z,99634
2018-02-01T20:00:45.720Z,99643
2018-02-01T20:05:50.365Z,99648
2018-02-01T20:10:54.582Z,99648
2018-02-01T20:15:57.636Z,99646
2018-02-01T20:21:00.734Z,99646
2018-02-01T20:26:05.147Z,99649
2018-02-01T20:31:08.666Z,99641
2018-02-01T20:36:13.209Z,99642
2018-02-01T20:41:17.661Z,99635
2018-02-01T20:46:20.694Z,99640
2018-02-01T20:51:25.269Z,99640
2018-02-01T20:56:28.338Z,99647
2018-02-01T21:01:32.166Z,99649
2018-02-01T21:06:36.738Z,99644
2018-02-01T21:11:40.951Z,99642
2018-02-01T21:16:47.898Z,99640
2018-02-01T21:21:50.991Z,99646
2018-02-01T21:26:55.214Z,99641
2018-02-01T21:32:04.394Z,99647
2018-02-01T21:37:07.470Z,99648
2018-02-01T21:42:10.539Z,99653
2018-02-01T21:47:14.742Z,99643
2018-02-01T21:52:19.777Z,99638
2018-02-01T21:57:24.186Z,99647
2018-02-01T22:02:27.274Z,99652
2018-02-01T22:07:30.343Z,99649
2018-02-01T22:12:33.819Z,99648
2018-02-01T22:17:38.408Z,99646
2018-02-01T22:22:42.625Z,99647
2018-02-01T22:27:45.720Z,99649
2018-02-01T22:32:50.131Z,99644
2018-02-01T22:37:54.279Z,99649
2018-02-01T22:42:57.351Z,99654
2018-02-01T22:48:02.311Z,99649
2018-02-01T22:53:06.717Z,99641
2018-02-01T22:58:09.795Z,99658
2018-02-01T23:03:14.290Z,99663
2018-02-01T23:08:18.512Z,99664
2018-02-01T23:13:21.785Z,99672
2018-02-01T23:18:26.422Z,99661
2018-02-01T23:23:29.511Z,99663
2018-02-01T23:28:32.602Z,99651
2018-02-01T23:33:37.063Z,99643
2018-02-01T23:38:41.603Z,99637
2018-02-01T23:43:44.662Z,99635
2018-02-01T23:48:48.127Z,99639
2018-02-01T23:53:52.331Z,99637
2018-02-01T23:58:55.787Z,99631
